Time;durP1;ratioP1;P1;durP2;ratioP2;P2;SDS_P1;SDS_P2;PMS_P1;PMS_P2;Temp;Humidity;BMP_temperature;BMP_pressure;BME280_temperature;BME280_humidity;BME280_pressure;Samples;Min_cycle;Max_cycle;Signal;HPM_P1;HPM_P2
2023/01/24 00:00:54;;;;;;;19.63;11.23;;;;;;;1.96;74.74;98028.25;6245584;23;20028;-76
2023/01/24 00:03:22;;;;;;;18.80;11.20;;;;;;;1.93;74.81;98023.31;6245557;23;20026;-75
2023/01/24 00:05:50;;;;;;;18.58;11.65;;;;;;;1.93;75.40;98019.91;6245986;23;20074;-76
2023/01/24 00:08:20;;;;;;;16.05;10.48;;;;;;;1.92;75.33;98016.50;6244702;23;20020;-76
2023/01/24 00:10:48;;;;;;;19.15;10.73;;;;;;;1.93;75.04;98012.19;6244809;23;20087;-75
2023/01/24 00:13:17;;;;;;;16.92;11.40;;;;;;;1.93;74.97;98007.88;6245425;23;20016;-75
2023/01/24 00:15:44;;;;;;;17.60;10.93;;;;;;;1.94;75.64;98001.78;6245472;23;20030;-75
2023/01/24 00:18:12;;;;;;;15.35;10.85;;;;;;;1.96;75.50;98005.09;6244460;23;20095;-75
2023/01/24 00:20:39;;;;;;;18.92;11.85;;;;;;;1.95;75.50;98012.94;6245267;23;20467;-75
2023/01/24 00:23:08;;;;;;;16.20;10.52;;;;;;;1.93;75.14;98005.28;6246181;23;20042;-76
2023/01/24 00:25:35;;;;;;;16.65;11.00;;;;;;;1.91;75.13;98009.69;6245679;23;20020;-76
2023/01/24 00:28:03;;;;;;;16.13;10.40;;;;;;;1.91;75.80;98007.13;6244302;23;20024;-76
2023/01/24 00:30:31;;;;;;;18.85;11.63;;;;;;;1.89;75.53;98006.41;6245513;23;20482;-76
2023/01/24 00:32:58;;;;;;;16.95;10.27;;;;;;;1.88;75.83;97989.31;6245427;23;20472;-76
2023/01/24 00:35:26;;;;;;;18.33;11.68;;;;;;;1.92;75.79;97995.09;6245495;23;20329;-76
2023/01/24 00:37:53;;;;;;;16.92;10.95;;;;;;;1.91;75.66;97998.59;6244010;23;20016;-74
2023/01/24 00:40:30;;;;;;;15.93;11.05;;;;;;;1.93;75.87;97996.75;6237862;22;20035;-86
2023/01/24 00:43:03;;;;;;;16.88;11.32;;;;;;;1.93;75.47;97997.56;6243878;22;20024;-86
2023/01/24 00:45:38;;;;;;;19.10;12.02;;;;;;;1.92;75.84;97990.75;6243599;22;20061;-86
2023/01/24 00:48:19;;;;;;;16.02;10.63;;;;;;;1.92;75.63;97993.34;6221944;22;20008;-85
2023/01/24 00:50:51;;;;;;;17.17;11.43;;;;;;;1.93;75.86;97992.44;6274485;22;20015;-85
2023/01/24 00:53:29;;;;;;;16.15;10.73;;;;;;;1.95;75.98;97995.75;6273866;22;20019;-85
2023/01/24 00:56:06;;;;;;;20.75;11.32;;;;;;;1.94;76.10;97999.22;6273991;22;20004;-86
2023/01/24 00:58:39;;;;;;;15.02;10.27;;;;;;;1.92;75.80;98001.06;6275666;22;20064;-86
2023/01/24 01:01:17;;;;;;;16.70;11.48;;;;;;;1.95;75.71;98003.47;6275749;22;20043;-84
2023/01/24 01:03:54;;;;;;;17.15;11.00;;;;;;;1.97;76.20;98006.75;6275958;22;20012;-86
2023/01/24 01:06:24;;;;;;;16.42;11.45;;;;;;;1.98;75.87;98008.41;6275965;22;20012;-87
2023/01/24 01:08:55;;;;;;;15.82;10.18;;;;;;;1.98;75.88;98016.13;6275435;22;20034;-86
2023/01/24 01:11:28;;;;;;;17.77;10.80;;;;;;;1.98;76.07;98018.69;6275934;22;20012;-88
2023/01/24 01:14:06;;;;;;;17.05;11.02;;;;;;;1.96;76.18;98010.25;6276057;22;20056;-86
2023/01/24 01:16:41;;;;;;;16.33;9.98;;;;;;;1.95;75.80;98021.47;6275615;22;20004;-88
2023/01/24 01:19:16;;;;;;;17.02;11.55;;;;;;;1.93;76.31;98022.50;6275408;22;20042;-86
2023/01/24 01:21:50;;;;;;;16.38;10.65;;;;;;;1.92;76.23;98024.22;6275584;22;20016;-87
2023/01/24 01:24:21;;;;;;;16.58;10.55;;;;;;;1.94;76.01;98024.94;6275994;22;20060;-85
2023/01/24 01:26:57;;;;;;;18.35;10.73;;;;;;;1.96;75.94;98035.97;6275625;22;20008;-86
2023/01/24 01:29:27;;;;;;;17.42;9.98;;;;;;;1.97;76.24;98027.34;6275300;22;20031;-86
2023/01/24 01:31:58;;;;;;;16.13;10.13;;;;;;;1.99;76.34;98034.97;6275609;22;20008;-86
2023/01/24 01:34:28;;;;;;;17.08;11.15;;;;;;;1.99;76.12;98033.22;6275360;22;20055;-86
2023/01/24 01:37:00;;;;;;;16.65;10.52;;;;;;;2.00;76.05;98029.72;6275433;22;20008;-86
2023/01/24 01:39:29;;;;;;;18.67;10.73;;;;;;;2.00;75.90;98039.19;6249328;23;20015;-86
2023/01/24 01:42:02;;;;;;;17.42;10.63;;;;;;;2.00;76.21;98040.03;6250212;22;20018;-87
2023/01/24 01:44:42;;;;;;;15.98;10.32;;;;;;;2.02;76.13;98048.47;6250339;22;20000;-85
2023/01/24 01:47:28;;;;;;;14.10;9.18;;;;;;;2.06;76.09;98039.66;6275675;22;20000;-86
2023/01/24 01:50:03;;;;;;;16.47;10.40;;;;;;;2.06;75.88;98044.81;6275535;22;20004;-87
2023/01/24 01:52:45;;;;;;;16.30;10.98;;;;;;;2.08;76.37;98041.28;6275759;22;20024;-86
2023/01/24 01:55:24;;;;;;;15.63;10.52;;;;;;;2.11;76.23;98035.97;6275271;22;20030;-87
2023/01/24 01:58:10;;;;;;;15.35;9.18;;;;;;;2.14;76.15;98043.50;6275265;22;20014;-86
2023/01/24 02:00:49;;;;;;;;;;;;;;;2.14;76.18;98038.34;6275895;22;20038;-87
2023/01/24 02:03:41;;;;;;;14.00;9.00;;;;;;;2.09;75.59;98040.41;6275436;22;19900;-86
2023/01/24 02:06:32;;;;;;;16.10;10.57;;;;;;;2.09;76.70;98040.41;6275544;22;20008;-87
2023/01/24 02:09:05;;;;;;;16.70;11.07;;;;;;;2.08;76.35;98039.56;6274609;22;20000;-88
2023/01/24 02:11:41;;;;;;;18.20;10.15;;;;;;;2.11;76.08;98041.13;6249958;22;20011;-88
2023/01/24 02:17:10;;;;;;;15.60;10.80;;;;;;;2.16;76.27;98044.25;6274921;22;20000;-86
2023/01/24 02:20:12;;;;;;;17.20;11.57;;;;;;;2.23;77.63;98048.09;6274683;22;20068;-87
2023/01/24 02:22:56;;;;;;;16.98;11.10;;;;;;;2.29;77.10;98041.75;6276263;22;20008;-87
2023/01/24 02:25:32;;;;;;;16.52;11.38;;;;;;;2.34;77.60;98050.00;6275849;22;20020;-87
2023/01/24 02:28:19;;;;;;;17.80;11.63;;;;;;;2.36;76.45;98046.44;6237072;22;20068;-87
2023/01/24 02:31:03;;;;;;;18.30;11.63;;;;;;;2.37;77.86;98050.66;6244410;23;20008;-87
2023/01/24 02:33:42;;;;;;;16.85;10.88;;;;;;;2.41;77.17;98049.53;6245092;23;20043;-88
2023/01/24 02:36:28;;;;;;;16.17;10.70;;;;;;;2.41;76.70;98046.97;6244663;23;20012;-87
2023/01/24 02:39:06;;;;;;;17.70;11.65;;;;;;;2.43;76.65;98052.03;6241266;22;20007;-87
2023/01/24 02:41:44;;;;;;;18.10;11.43;;;;;;;2.43;76.66;98036.59;6246117;23;20017;-88
2023/01/24 02:44:30;;;;;;;18.02;12.02;;;;;;;2.42;76.10;98048.59;6246331;23;20032;-87
2023/01/24 02:47:12;;;;;;;17.67;11.35;;;;;;;2.42;75.83;98050.38;6246575;23;20009;-87
2023/01/24 02:50:09;;;;;;;17.58;11.00;;;;;;;2.37;75.60;98055.81;6246052;23;20009;-87
2023/01/24 02:58:34;;;;;;;17.63;11.52;;;;;;;2.41;77.29;98059.03;6217225;23;20040;-87
2023/01/24 03:01:18;;;;;;;19.05;12.23;;;;;;;2.43;76.73;98065.72;6220409;23;20008;-86
2023/01/24 03:03:52;;;;;;;18.20;12.27;;;;;;;2.44;76.42;98062.22;6244869;23;20377;-86
2023/01/24 03:06:33;;;;;;;15.45;10.75;;;;;;;2.46;76.49;98068.09;6244527;23;20008;-86
2023/01/24 03:09:18;;;;;;;17.60;11.32;;;;;;;2.50;76.19;98070.50;6244487;23;20012;-85
2023/01/24 03:34:30;;;;;;;19.33;12.02;;;;;;;2.22;75.79;98067.03;6241129;23;20024;-85
2023/01/24 03:36:58;;;;;;;16.88;11.00;;;;;;;2.18;75.78;98074.13;6240507;23;20009;-87
2023/01/24 03:42:12;;;;;;;17.33;11.30;;;;;;;2.13;75.47;98072.75;6240010;23;20048;-84
2023/01/24 03:44:40;;;;;;;18.05;11.38;;;;;;;2.11;75.93;98077.16;6239955;23;20021;-84
2023/01/24 03:47:07;;;;;;;20.58;12.23;;;;;;;2.09;76.11;98068.72;6240808;23;20009;-84
2023/01/24 03:52:31;;;;;;;16.30;10.38;;;;;;;2.02;76.09;98074.22;6240337;23;20028;-85
2023/01/24 03:55:02;;;;;;;17.80;11.70;;;;;;;2.02;76.12;98074.22;6238012;23;20028;-86
2023/01/24 03:57:30;;;;;;;20.92;11.38;;;;;;;2.01;76.03;98070.00;6237085;23;20072;-84
2023/01/24 03:59:58;;;;;;;18.80;11.48;;;;;;;2.01;76.17;98077.72;6236978;23;20017;-84
2023/01/24 04:02:27;;;;;;;19.42;11.43;;;;;;;2.00;75.94;98075.22;6238194;23;20023;-85
2023/01/24 04:05:15;;;;;;;20.50;12.18;;;;;;;1.99;76.23;98074.41;6236651;23;20020;-84
2023/01/24 04:07:43;;;;;;;17.23;11.00;;;;;;;2.01;76.40;98076.88;6235535;23;20020;-86
2023/01/24 04:10:13;;;;;;;16.50;10.88;;;;;;;2.02;76.33;98076.78;6236036;23;20052;-84
2023/01/24 04:12:45;;;;;;;16.33;11.00;;;;;;;2.01;76.48;98077.72;6235407;23;20016;-84
2023/01/24 04:15:19;;;;;;;18.45;11.63;;;;;;;2.03;75.99;98080.19;6233026;23;20020;-86
2023/01/24 04:17:50;;;;;;;15.23;10.93;;;;;;;2.02;76.04;98074.22;6233746;23;20020;-84
2023/01/24 04:20:21;;;;;;;15.45;10.43;;;;;;;2.02;76.15;98079.38;6208232;23;20020;-87
2023/01/24 04:22:51;;;;;;;17.13;11.93;;;;;;;2.02;76.21;98074.22;6236789;23;20035;-85
2023/01/24 04:25:23;;;;;;;15.85;10.43;;;;;;;2.04;76.42;98077.53;6243210;23;20027;-84
2023/01/24 04:27:54;;;;;;;14.75;10.15;;;;;;;2.07;76.09;98073.94;6243323;23;20011;-87
2023/01/24 04:30:28;;;;;;;17.08;11.07;;;;;;;2.11;76.31;98061.72;6243182;23;20021;-85
2023/01/24 04:32:56;;;;;;;18.67;10.95;;;;;;;2.14;76.31;98075.22;6238389;23;20079;-84
2023/01/24 04:35:28;;;;;;;17.45;10.77;;;;;;;2.17;76.10;98077.63;6238437;23;20341;-84
2023/01/24 04:38:01;;;;;;;16.13;10.48;;;;;;;2.17;75.82;98072.47;6239859;23;20028;-84
2023/01/24 04:40:29;;;;;;;15.85;10.48;;;;;;;2.16;76.11;98075.94;6240374;23;20016;-84
2023/01/24 04:42:59;;;;;;;19.65;11.38;;;;;;;2.16;75.78;98067.41;6241160;23;20011;-84
2023/01/24 04:45:27;;;;;;;17.33;10.73;;;;;;;2.15;75.63;98074.31;6238755;23;20036;-83
2023/01/24 04:47:56;;;;;;;16.50;10.50;;;;;;;2.15;75.85;98078.63;6237821;23;20020;-84
2023/01/24 04:50:26;;;;;;;15.18;9.68;;;;;;;2.12;75.38;98073.66;6211468;23;20024;-84
2023/01/24 04:52:54;;;;;;;15.10;9.68;;;;;;;2.06;75.66;98075.69;6235812;23;20475;-84
2023/01/24 04:55:22;;;;;;;16.38;11.05;;;;;;;2.03;75.59;98075.88;6233955;23;20020;-84
2023/01/24 04:57:55;;;;;;;17.05;10.57;;;;;;;2.00;75.55;98075.22;6235274;23;20000;-84
2023/01/24 05:00:26;;;;;;;16.80;11.40;;;;;;;1.99;75.96;98084.72;6236411;23;20016;-84
2023/01/24 05:02:55;;;;;;;16.80;10.50;;;;;;;1.99;75.98;98084.72;6236379;23;20017;-84
2023/01/24 05:05:23;;;;;;;17.15;10.48;;;;;;;1.98;76.10;98090.75;6239266;23;20087;-85
2023/01/24 05:07:53;;;;;;;17.40;11.45;;;;;;;2.00;76.62;98096.66;6238511;23;20016;-86
2023/01/24 05:10:24;;;;;;;16.50;10.77;;;;;;;2.02;76.23;98094.81;6241598;23;20000;-84
2023/01/24 05:12:54;;;;;;;15.45;9.90;;;;;;;2.03;75.81;98090.47;6241912;23;20047;-84
2023/01/24 05:15:27;;;;;;;13.88;9.43;;;;;;;2.01;75.95;98089.75;6236838;23;20020;-84
2023/01/24 05:17:59;;;;;;;16.20;10.02;;;;;;;2.00;75.88;98085.53;6239800;23;20016;-84
2023/01/24 05:20:33;;;;;;;15.82;9.95;;;;;;;1.99;76.18;98083.84;6239628;23;20012;-84
2023/01/24 05:23:09;;;;;;;15.98;9.90;;;;;;;1.99;76.04;98084.72;6241489;23;20027;-84
2023/01/24 05:25:38;;;;;;;16.20;11.02;;;;;;;2.05;76.62;98092.03;6241866;23;20253;-84
2023/01/24 05:28:08;;;;;;;15.57;10.65;;;;;;;2.09;76.40;98110.72;6242038;23;20020;-87
2023/01/24 05:30:37;;;;;;;13.95;9.27;;;;;;;2.09;75.88;98102.16;6241512;23;20064;-84
2023/01/24 05:33:14;;;;;;;16.17;10.43;;;;;;;2.08;75.63;98103.06;6240165;23;20023;-84
2023/01/24 05:35:50;;;;;;;14.55;9.80;;;;;;;2.09;76.18;98112.47;6241070;23;20052;-85
2023/01/24 05:38:28;;;;;;;14.43;9.73;;;;;;;2.09;75.88;98108.13;6240638;23;20092;-85
2023/01/24 05:41:01;;;;;;;18.08;10.10;;;;;;;2.07;76.18;98120.28;6240509;23;20047;-84
2023/01/24 05:43:30;;;;;;;15.88;10.43;;;;;;;2.09;75.72;98115.03;6241606;23;20025;-85
2023/01/24 05:46:00;;;;;;;12.50;8.73;;;;;;;2.09;75.72;98125.34;6242985;23;20012;-85
2023/01/24 05:48:32;;;;;;;13.50;8.68;;;;;;;2.07;75.59;98117.69;6216431;23;20026;-85
2023/01/24 05:51:04;;;;;;;13.30;9.35;;;;;;;2.07;75.93;98122.84;6217186;23;20015;-85
2023/01/24 05:53:35;;;;;;;13.63;9.60;;;;;;;2.05;75.66;98119.53;6241677;23;20021;-84
2023/01/24 05:56:05;;;;;;;16.77;9.93;;;;;;;2.02;75.59;98115.41;6242637;23;20021;-85
2023/01/24 05:58:35;;;;;;;15.98;9.88;;;;;;;2.00;75.75;98122.38;6241692;23;20017;-84
2023/01/24 06:01:07;;;;;;;14.23;9.50;;;;;;;2.02;75.70;98117.97;6240948;23;20016;-86
2023/01/24 06:03:37;;;;;;;;;;;;;;;2.06;75.95;98122.03;6244345;23;20067;-88
2023/01/24 06:06:06;;;;;;;13.75;8.93;;;;;;;2.05;75.43;98115.22;6244357;23;19934;-86
2023/01/24 06:08:35;;;;;;;15.55;9.35;;;;;;;2.03;75.71;98121.38;6242484;23;20043;-85
2023/01/24 06:11:05;;;;;;;14.18;9.52;;;;;;;2.04;75.63;98121.28;6242247;23;20059;-86
2023/01/24 06:13:34;;;;;;;14.48;9.48;;;;;;;2.03;75.55;98123.94;6241714;23;20000;-84
2023/01/24 06:16:06;;;;;;;14.80;9.35;;;;;;;2.04;76.03;98128.19;6239947;23;20068;-86
2023/01/24 06:18:36;;;;;;;14.85;9.93;;;;;;;2.02;75.83;98128.28;6239713;23;20028;-84
2023/01/24 06:21:16;;;;;;;16.40;10.23;;;;;;;2.01;76.09;98121.47;6241691;23;20017;-84
2023/01/24 06:23:46;;;;;;;14.48;9.63;;;;;;;2.03;75.56;98137.66;6239829;23;20028;-84
2023/01/24 06:26:14;;;;;;;16.40;10.45;;;;;;;2.04;75.63;98123.84;6240159;23;20021;-85
2023/01/24 06:28:43;;;;;;;13.07;9.02;;;;;;;2.06;75.61;98124.59;6238316;23;20017;-84
2023/01/24 06:31:22;;;;;;;14.07;9.73;;;;;;;2.11;75.72;98120.94;6240884;23;20004;-84
2023/01/24 06:34:07;;;;;;;15.10;9.93;;;;;;;2.13;75.55;98119.91;6240912;23;20001;-84
2023/01/24 06:36:47;;;;;;;14.07;10.02;;;;;;;2.14;75.43;98124.13;6242631;23;20035;-84
2023/01/24 06:39:17;;;;;;;20.38;10.65;;;;;;;2.14;75.58;98133.59;6225137;22;20013;-75
2023/01/24 06:41:45;;;;;;;13.70;9.55;;;;;;;2.15;75.46;98137.84;6216720;23;20016;-75
2023/01/24 06:44:13;;;;;;;15.23;9.95;;;;;;;2.16;75.36;98137.75;6213128;23;20027;-76
2023/01/24 06:46:40;;;;;;;15.10;9.90;;;;;;;2.16;75.27;98135.16;6215817;23;20025;-76
2023/01/24 06:49:10;;;;;;;15.77;10.48;;;;;;;2.18;75.12;98145.38;6234722;23;20048;-76
2023/01/24 06:51:38;;;;;;;15.27;9.98;;;;;;;2.20;75.55;98140.97;6251038;23;20095;-75
2023/01/24 06:54:06;;;;;;;18.60;11.10;;;;;;;2.22;75.48;98139.13;6246177;23;20020;-76
2023/01/24 06:56:34;;;;;;;12.95;8.85;;;;;;;2.22;75.65;98137.38;6240180;23;20024;-73
2023/01/24 06:59:02;;;;;;;15.27;10.10;;;;;;;2.22;75.42;98144.28;6243655;23;20028;-75
2023/01/24 07:01:29;;;;;;;13.90;9.07;;;;;;;2.21;75.80;98148.59;6245516;23;20016;-74
2023/01/24 07:03:57;;;;;;;14.05;8.98;;;;;;;2.21;75.67;98158.09;6245534;23;20020;-75
2023/01/24 07:06:26;;;;;;;17.83;10.40;;;;;;;2.21;75.16;98160.66;6245140;23;20031;-75
2023/01/24 07:08:54;;;;;;;12.88;9.02;;;;;;;2.21;75.07;98164.06;6244670;23;20356;-75
2023/01/24 07:11:22;;;;;;;16.10;11.13;;;;;;;2.22;75.16;98167.44;6244478;23;20107;-75
2023/01/24 07:13:51;;;;;;;15.32;11.27;;;;;;;2.23;75.42;98169.94;6245869;23;20039;-75
2023/01/24 07:16:19;;;;;;;16.40;10.50;;;;;;;2.25;75.39;98168.09;6245401;23;20039;-75
2023/01/24 07:18:47;;;;;;;15.50;10.07;;;;;;;2.28;75.54;98161.13;6243869;23;20381;-75
2023/01/24 07:21:15;;;;;;;15.40;10.85;;;;;;;2.32;75.46;98172.88;6245631;23;20026;-75
2023/01/24 07:23:45;;;;;;;15.43;10.00;;;;;;;2.32;74.94;98171.16;6246040;23;20099;-75
2023/01/24 07:26:13;;;;;;;13.95;8.90;;;;;;;2.31;74.81;98177.19;6245462;23;20024;-75
2023/01/24 07:28:42;;;;;;;15.20;9.85;;;;;;;2.28;74.64;98187.69;6244499;23;20054;-75
2023/01/24 07:31:15;;;;;;;18.60;10.95;;;;;;;2.25;74.69;98183.56;6245200;23;20024;-76
2023/01/24 07:33:43;;;;;;;14.60;10.18;;;;;;;2.23;74.88;98187.97;6245500;23;20344;-75
2023/01/24 07:36:15;;;;;;;15.35;9.82;;;;;;;2.20;74.85;98197.59;6244020;23;20059;-75
2023/01/24 07:38:42;;;;;;;15.40;9.95;;;;;;;2.20;74.99;98189.88;6244146;23;20062;-75
2023/01/24 07:41:11;;;;;;;15.88;10.07;;;;;;;2.17;75.04;98197.81;6244853;23;20024;-75
2023/01/24 07:43:38;;;;;;;13.18;9.57;;;;;;;2.16;75.13;98201.28;6244837;23;20031;-74
2023/01/24 07:46:06;;;;;;;14.90;9.98;;;;;;;2.15;75.09;98202.22;6244543;23;20020;-75
2023/01/24 07:48:35;;;;;;;14.63;9.25;;;;;;;2.14;75.48;98210.84;6244201;23;20391;-75
2023/01/24 07:51:03;;;;;;;13.15;9.38;;;;;;;2.14;75.58;98206.50;6244208;23;20497;-75
2023/01/24 07:53:30;;;;;;;16.80;9.35;;;;;;;2.13;75.07;98199.72;6245149;23;20021;-75
2023/01/24 07:55:59;;;;;;;14.32;9.75;;;;;;;2.12;75.05;98202.38;6245495;23;20351;-75
2023/01/24 07:58:29;;;;;;;14.90;8.95;;;;;;;2.13;75.36;98211.75;6244404;23;20079;-75
2023/01/24 08:00:57;;;;;;;13.95;9.10;;;;;;;2.13;75.70;98204.88;6244535;23;20078;-75
2023/01/24 08:03:25;;;;;;;16.27;10.18;;;;;;;2.14;75.37;98211.66;6244583;23;20023;-75
2023/01/24 08:05:54;;;;;;;15.52;9.05;;;;;;;2.15;75.39;98220.22;6244125;23;20031;-75
2023/01/24 08:08:21;;;;;;;15.15;9.15;;;;;;;2.14;75.24;98224.53;6243647;23;20107;-75
2023/01/24 08:10:49;;;;;;;12.07;9.40;;;;;;;2.13;75.19;98224.63;6244490;23;20020;-75
2023/01/24 08:13:16;;;;;;;13.20;8.52;;;;;;;2.12;75.69;98225.53;6244962;23;20026;-75
2023/01/24 08:15:44;;;;;;;14.10;9.63;;;;;;;2.13;75.44;98215.16;6245350;23;20103;-75
2023/01/24 08:18:14;;;;;;;13.25;9.18;;;;;;;2.13;75.49;98232.34;6242880;23;20407;-75
2023/01/24 08:20:42;;;;;;;14.00;8.95;;;;;;;2.14;75.44;98224.53;6244472;23;20484;-75
2023/01/24 08:23:11;;;;;;;13.25;8.45;;;;;;;2.14;75.27;98221.13;6244860;23;20326;-75
2023/01/24 08:25:38;;;;;;;12.45;8.32;;;;;;;2.12;75.34;98231.53;6244924;23;20020;-77
2023/01/24 08:28:06;;;;;;;13.45;8.50;;;;;;;2.09;75.10;98223.16;6245037;23;20054;-78
2023/01/24 08:30:33;;;;;;;11.27;7.53;;;;;;;2.08;75.28;98226.63;6246047;23;20407;-77
2023/01/24 08:33:02;;;;;;;13.43;8.20;;;;;;;2.08;75.34;98229.19;6245029;23;20026;-76
2023/01/24 08:35:30;;;;;;;11.65;8.07;;;;;;;2.09;75.41;98233.44;6245484;23;20322;-77
2023/01/24 08:37:58;;;;;;;12.93;8.40;;;;;;;2.11;75.55;98247.06;6243832;23;20050;-77
2023/01/24 08:40:27;;;;;;;13.00;8.52;;;;;;;2.15;75.62;98240.81;6244713;23;20020;-77
2023/01/24 08:43:04;;;;;;;13.45;9.77;;;;;;;2.18;75.63;98238.06;6244748;23;20016;-77
2023/01/24 08:45:32;;;;;;;11.73;7.80;;;;;;;2.20;75.60;98241.38;6244272;23;20016;-77
2023/01/24 08:48:00;;;;;;;11.15;7.63;;;;;;;2.24;75.60;98235.13;6243646;23;20064;-76
2023/01/24 08:50:27;;;;;;;12.63;8.00;;;;;;;2.26;75.38;98241.84;6245080;23;20020;-76
2023/01/24 08:52:56;;;;;;;9.85;7.22;;;;;;;2.29;75.15;98240.00;6245038;23;20084;-78
2023/01/24 08:55:24;;;;;;;12.30;8.57;;;;;;;2.28;75.17;98244.34;6244805;23;20368;-77
2023/01/24 08:57:59;;;;;;;11.00;7.60;;;;;;;2.27;74.96;98242.66;6244405;23;20100;-77
2023/01/24 09:00:27;;;;;;;10.40;7.78;;;;;;;2.27;75.09;98247.81;6244644;23;20024;-77
2023/01/24 09:02:54;;;;;;;10.48;7.60;;;;;;;2.28;75.00;98249.50;6243038;23;20020;-79
2023/01/24 09:05:22;;;;;;;12.30;8.45;;;;;;;2.33;75.23;98256.94;6233267;23;20032;-76
2023/01/24 09:07:50;;;;;;;10.77;7.38;;;;;;;2.37;76.00;98258.44;6241711;23;20476;-76
2023/01/24 09:10:17;;;;;;;13.98;7.88;;;;;;;2.41;75.81;98259.91;6245009;23;20027;-77
2023/01/24 09:12:45;;;;;;;10.85;7.40;;;;;;;2.40;75.14;98264.22;6244729;23;20495;-77
2023/01/24 09:15:14;;;;;;;10.30;7.22;;;;;;;2.42;74.98;98264.94;6245905;23;20016;-77
2023/01/24 09:17:41;;;;;;;10.38;7.40;;;;;;;2.43;74.67;98269.19;6245579;23;20020;-77
2023/01/24 09:20:10;;;;;;;9.85;7.57;;;;;;;2.44;74.48;98263.13;6246634;23;20070;-77
2023/01/24 09:22:38;;;;;;;9.75;7.35;;;;;;;2.45;74.71;98269.13;6246217;23;20027;-77
2023/01/24 09:25:07;;;;;;;8.52;6.63;;;;;;;2.44;74.96;98270.03;6246576;23;20035;-77
2023/01/24 09:27:35;;;;;;;10.68;8.05;;;;;;;2.44;74.73;98276.00;6246609;23;20089;-77
2023/01/24 09:30:04;;;;;;;10.32;7.65;;;;;;;2.45;74.92;98282.81;6246038;23;20024;-77
2023/01/24 09:32:33;;;;;;;9.65;7.07;;;;;;;2.44;74.35;98282.91;6247098;23;20095;-77
2023/01/24 09:35:01;;;;;;;9.77;7.32;;;;;;;2.41;74.68;98275.38;6246676;23;20333;-77
2023/01/24 09:37:28;;;;;;;9.82;7.32;;;;;;;2.40;74.93;98279.66;6247159;23;20089;-75
2023/01/24 09:39:59;;;;;;;8.60;6.75;;;;;;;2.40;74.84;98268.53;6245231;23;20016;-77
2023/01/24 09:42:34;;;;;;;11.65;8.13;;;;;;;2.41;74.92;98275.38;6246554;23;20400;-76
2023/01/24 09:45:13;;;;;;;11.55;7.38;;;;;;;2.41;75.24;98278.75;6253403;23;20020;-76
2023/01/24 09:47:48;;;;;;;9.50;7.05;;;;;;;2.42;74.71;98280.41;6250966;23;20028;-77
2023/01/24 09:50:17;;;;;;;11.25;8.02;;;;;;;2.42;74.73;98272.69;6246795;23;20020;-77
2023/01/24 09:52:48;;;;;;;11.57;7.28;;;;;;;2.41;74.96;98280.50;6246726;23;20028;-77
2023/01/24 09:55:22;;;;;;;11.18;8.00;;;;;;;2.41;75.00;98276.19;6246867;23;20030;-77
2023/01/24 09:57:55;;;;;;;11.30;7.80;;;;;;;2.43;74.92;98270.97;6245354;23;20456;-77
2023/01/24 10:00:26;;;;;;;11.45;7.30;;;;;;;2.43;74.66;98274.34;6246258;23;20326;-77
2023/01/24 10:02:56;;;;;;;11.80;7.38;;;;;;;2.44;75.01;98272.59;6246155;23;20074;-77
2023/01/24 10:05:30;;;;;;;10.98;7.97;;;;;;;2.46;75.00;98275.91;6246368;23;20078;-78
2023/01/24 10:08:15;;;;;;;11.70;8.65;;;;;;;2.48;75.16;98285.19;6245390;23;20020;-77
2023/01/24 10:10:53;;;;;;;11.43;8.32;;;;;;;2.47;74.64;98280.13;6246055;23;20099;-75
2023/01/24 10:13:50;;;;;;;13.00;8.88;;;;;;;2.46;74.78;98283.66;6245695;23;20016;-74
2023/01/24 10:16:41;;;;;;;11.57;8.50;;;;;;;2.46;74.77;98283.66;6246021;23;20483;-75
2023/01/24 10:19:21;;;;;;;14.65;8.95;;;;;;;2.45;74.87;98282.00;6245038;23;20470;-75
2023/01/24 10:22:10;;;;;;;12.18;8.50;;;;;;;2.44;75.12;98286.28;6246037;23;20483;-74
2023/01/24 10:24:42;;;;;;;11.73;8.38;;;;;;;2.44;74.91;98282.91;6243602;23;20066;-75
2023/01/24 10:27:17;;;;;;;14.27;9.15;;;;;;;2.41;74.53;98288.25;6246038;23;20066;-75
2023/01/24 10:29:48;;;;;;;10.80;8.45;;;;;;;2.36;74.88;98285.94;6244324;23;20568;-76
2023/01/24 10:32:27;;;;;;;12.10;8.07;;;;;;;2.35;75.04;98289.41;6246265;23;20026;-74
2023/01/24 10:35:00;;;;;;;13.25;9.13;;;;;;;2.34;74.91;98280.03;6246154;23;20452;-75
2023/01/24 10:37:33;;;;;;;15.13;9.60;;;;;;;2.35;75.44;98286.00;6246008;23;20020;-75
2023/01/24 10:40:01;;;;;;;18.80;10.18;;;;;;;2.38;75.43;98281.50;6244858;23;20031;-76
2023/01/24 10:42:30;;;;;;;15.88;10.77;;;;;;;2.41;75.07;98281.34;6246308;23;20624;-75
2023/01/24 10:45:01;;;;;;;18.63;10.85;;;;;;;2.45;75.53;98280.25;6245531;23;20020;-75
2023/01/24 10:47:45;;;;;;;11.68;7.80;;;;;;;2.51;75.52;98280.78;6245460;23;20023;-75
2023/01/24 10:50:16;;;;;;;11.93;8.50;;;;;;;2.53;75.34;98274.63;6245418;23;20020;-75
2023/01/24 10:52:46;;;;;;;12.65;8.98;;;;;;;2.57;75.09;98280.44;6245208;23;20020;-75
2023/01/24 10:55:26;;;;;;;11.68;8.27;;;;;;;2.61;75.00;98281.91;6245805;23;20023;-75
2023/01/24 10:57:55;;;;;;;11.95;8.43;;;;;;;2.64;74.95;98277.41;6244127;23;20028;-74
2023/01/24 11:00:30;;;;;;;12.30;7.68;;;;;;;2.68;74.79;98270.31;6244927;23;20472;-75
2023/01/24 11:03:00;;;;;;;11.60;8.13;;;;;;;2.69;74.65;98269.41;6244842;23;20062;-75
2023/01/24 11:05:40;;;;;;;11.20;6.68;;;;;;;2.73;75.00;98270.03;6245465;23;20122;-75
2023/01/24 11:08:17;;;;;;;8.85;6.88;;;;;;;2.76;74.58;98267.31;6244839;23;20027;-76
2023/01/24 11:10:44;;;;;;;10.82;7.25;;;;;;;2.75;74.26;98258.72;6245714;23;20024;-75
2023/01/24 11:13:26;;;;;;;9.93;7.18;;;;;;;2.76;74.69;98255.25;6245410;23;20027;-76
2023/01/24 11:16:00;;;;;;;12.15;8.43;;;;;;;2.80;74.67;98261.03;6245015;23;20028;-76
2023/01/24 11:18:30;;;;;;;12.27;8.27;;;;;;;2.83;75.17;98256.53;6244209;23;20020;-75
2023/01/24 11:21:13;;;;;;;12.65;8.30;;;;;;;2.88;75.15;98249.31;6245201;23;20031;-76
2023/01/24 11:23:42;;;;;;;10.57;7.78;;;;;;;2.91;74.80;98243.19;6246452;23;20016;-76
2023/01/24 11:26:23;;;;;;;11.88;7.80;;;;;;;2.94;74.24;98244.75;6244296;23;20471;-76
2023/01/24 11:28:59;;;;;;;11.88;7.20;;;;;;;2.97;74.31;98236.81;6244318;23;20031;-76
2023/01/24 11:31:37;;;;;;;12.15;8.27;;;;;;;2.97;74.53;98232.47;6245495;23;20042;-76
2023/01/24 11:34:29;;;;;;;10.77;7.53;;;;;;;2.98;74.36;98236.72;6246875;23;20082;-77
2023/01/24 11:37:07;;;;;;;11.73;8.52;;;;;;;2.99;74.39;98230.63;6245670;23;20016;-76
2023/01/24 11:39:42;;;;;;;10.35;7.80;;;;;;;3.01;74.41;98228.78;6245070;23;20353;-76
2023/01/24 11:42:18;;;;;;;15.07;8.20;;;;;;;3.04;74.20;98225.19;6244355;23;20478;-76
2023/01/24 11:45:04;;;;;;;9.88;7.22;;;;;;;3.07;74.60;98222.44;6244907;23;20016;-76
2023/01/24 11:47:37;;;;;;;10.50;7.85;;;;;;;3.11;74.28;98216.19;6245178;23;20027;-75
2023/01/24 11:50:27;;;;;;;9.70;7.55;;;;;;;3.16;74.42;98213.31;6243741;23;20095;-77
2023/01/24 11:53:18;;;;;;;11.35;7.30;;;;;;;3.17;73.92;98213.22;6245802;23;20372;-77
2023/01/24 11:55:59;;;;;;;10.98;7.18;;;;;;;3.19;74.08;98216.53;6245289;23;20476;-77
2023/01/24 11:58:39;;;;;;;12.95;7.38;;;;;;;3.21;74.33;98209.50;6244785;23;20020;-77
2023/01/24 12:01:13;;;;;;;11.05;8.10;;;;;;;3.21;74.20;98212.09;6244987;23;20028;-77
2023/01/24 12:03:55;;;;;;;16.40;10.35;;;;;;;3.23;73.98;98205.06;6244878;23;20016;-76
2023/01/24 12:06:34;;;;;;;16.10;9.50;;;;;;;3.27;74.44;98210.88;6244946;23;20028;-76
2023/01/24 12:09:21;;;;;;;11.60;8.05;;;;;;;3.28;73.92;98208.22;6244178;23;20028;-75
2023/01/24 12:12:06;;;;;;;11.15;8.05;;;;;;;3.29;74.14;98201.31;6244166;23;20019;-76
2023/01/24 12:14:54;;;;;;;12.20;8.18;;;;;;;3.33;74.08;98207.09;6244889;23;20012;-76
2023/01/24 12:17:50;;;;;;;11.30;8.13;;;;;;;3.35;73.80;98200.91;6243478;23;20020;-76
2023/01/24 12:20:32;;;;;;;11.13;7.85;;;;;;;3.37;73.67;98208.53;6243076;23;20038;-76
2023/01/24 12:23:05;;;;;;;12.85;8.25;;;;;;;3.39;73.99;98206.69;6244384;23;20024;-75
2023/01/24 12:25:37;;;;;;;14.93;9.05;;;;;;;3.40;73.40;98192.88;6244506;23;20020;-75
2023/01/24 12:28:06;;;;;;;13.98;8.95;;;;;;;3.36;73.63;98192.25;6242585;23;20498;-75
2023/01/24 12:30:40;;;;;;;12.65;8.93;;;;;;;3.30;73.50;98188.31;6241532;23;20415;-76
2023/01/24 12:33:15;;;;;;;11.65;8.73;;;;;;;3.28;73.82;98187.59;6243430;23;20020;-75
2023/01/24 12:35:46;;;;;;;13.40;8.30;;;;;;;3.25;73.96;98185.19;6244478;23;20016;-76